createdAt,value
2018-12-26T06:55:49.955Z,1.70
2018-12-26T06:56:55.068Z,1.70
2018-12-26T06:58:00.538Z,1.70
2018-12-26T06:59:05.719Z,1.70
2018-12-26T07:00:11.030Z,1.80
2018-12-26T07:01:16.067Z,1.70
2018-12-26T07:02:21.146Z,1.70
2018-12-26T07:03:26.194Z,1.70
2018-12-26T07:04:31.263Z,1.70
2018-12-26T07:05:36.293Z,1.70
2018-12-26T07:06:41.425Z,1.60
2018-12-26T07:07:46.595Z,1.60
2018-12-26T07:08:51.585Z,1.60
2018-12-26T07:09:56.581Z,1.60
2018-12-26T07:11:01.601Z,1.60
2018-12-26T07:12:06.591Z,1.60
2018-12-26T07:13:11.707Z,1.70
2018-12-26T07:14:16.726Z,1.70
2018-12-26T07:15:21.743Z,1.70
2018-12-26T07:16:26.763Z,1.70
2018-12-26T07:17:32.091Z,1.60
2018-12-26T07:18:37.459Z,1.60
2018-12-26T07:19:42.497Z,1.70
2018-12-26T07:20:47.498Z,1.60
2018-12-26T07:21:52.532Z,1.60
2018-12-26T07:22:57.526Z,1.60
2018-12-26T07:24:02.661Z,1.60
2018-12-26T07:25:09.151Z,1.60
2018-12-26T07:26:14.376Z,1.70
2018-12-26T07:27:19.418Z,1.70
2018-12-26T07:28:24.834Z,1.80
2018-12-26T07:29:30.507Z,1.90
2018-12-26T07:30:35.517Z,1.90
2018-12-26T07:31:40.536Z,1.90
2018-12-26T07:32:45.574Z,2.00
2018-12-26T07:33:50.585Z,2.00
2018-12-26T07:34:55.631Z,2.00
2018-12-26T07:36:01.070Z,2.00
2018-12-26T07:37:09.195Z,1.90
2018-12-26T07:38:14.300Z,1.90
2018-12-26T07:39:19.413Z,1.90
2018-12-26T07:40:24.600Z,1.90
2018-12-26T07:41:29.677Z,1.90
2018-12-26T07:42:34.741Z,1.90
2018-12-26T07:43:41.442Z,1.90
2018-12-26T07:44:46.447Z,1.90
2018-12-26T07:45:51.584Z,1.90
2018-12-26T07:47:00.817Z,1.90
2018-12-26T07:48:05.847Z,1.90
2018-12-26T07:49:13.351Z,1.90
2018-12-26T07:50:18.366Z,2.00
2018-12-26T07:51:23.803Z,1.90
2018-12-26T07:52:28.931Z,1.90
2018-12-26T07:53:33.999Z,2.00
2018-12-26T07:54:39.042Z,2.00
2018-12-26T07:55:44.257Z,2.10
2018-12-26T07:56:49.420Z,2.00
2018-12-26T07:57:54.519Z,2.00
2018-12-26T07:59:00.116Z,2.00
2018-12-26T08:00:05.293Z,2.00
2018-12-26T08:01:10.375Z,2.10
2018-12-26T08:02:15.509Z,2.10
2018-12-26T08:03:23.288Z,2.10
2018-12-26T08:04:28.447Z,2.10
2018-12-26T08:05:33.443Z,2.10
2018-12-26T08:06:39.512Z,2.10
2018-12-26T08:07:44.539Z,2.10
2018-12-26T08:08:49.749Z,2.10
2018-12-26T08:09:54.759Z,2.10
2018-12-26T08:10:59.983Z,2.10
2018-12-26T08:12:05.142Z,2.00
2018-12-26T08:13:10.401Z,2.00
2018-12-26T08:14:17.447Z,2.00
2018-12-26T08:15:22.923Z,2.00
2018-12-26T08:16:28.048Z,2.00
2018-12-26T08:17:33.148Z,2.00
2018-12-26T08:18:39.352Z,2.10
2018-12-26T08:19:44.649Z,2.00
2018-12-26T08:20:49.699Z,2.00
2018-12-26T08:21:54.788Z,2.00
2018-12-26T08:22:59.895Z,2.00
2018-12-26T08:24:04.958Z,2.00
2018-12-26T08:25:10.076Z,2.00
2018-12-26T08:26:15.214Z,2.00
2018-12-26T08:27:20.263Z,2.00
2018-12-26T08:28:26.741Z,2.00
2018-12-26T08:29:32.106Z,2.00
2018-12-26T08:30:37.334Z,2.10
2018-12-26T08:31:42.352Z,2.10
2018-12-26T08:32:47.368Z,2.10
2018-12-26T08:33:54.087Z,2.10
2018-12-26T08:35:01.632Z,2.10
2018-12-26T08:36:08.122Z,2.10
2018-12-26T08:37:13.131Z,2.10
2018-12-26T08:38:18.160Z,2.10
2018-12-26T08:39:23.192Z,2.10
2018-12-26T08:40:29.311Z,2.10
2018-12-26T08:41:34.577Z,2.10
2018-12-26T08:42:42.808Z,2.10
2018-12-26T08:43:48.104Z,2.00
2018-12-26T08:44:53.100Z,2.10
2018-12-26T08:45:58.218Z,2.00
2018-12-26T08:47:06.341Z,2.10
2018-12-26T08:48:15.600Z,2.00
2018-12-26T08:49:21.808Z,2.00
2018-12-26T08:50:27.540Z,2.00
2018-12-26T08:51:33.330Z,2.00
2018-12-26T08:52:38.466Z,2.00
2018-12-26T08:53:44.024Z,2.00
2018-12-26T08:54:49.568Z,2.00
2018-12-26T08:55:54.970Z,2.00
2018-12-26T08:57:00.239Z,2.00
2018-12-26T08:58:05.619Z,2.10
2018-12-26T08:59:10.981Z,2.10
2018-12-26T09:00:16.152Z,2.10
2018-12-26T09:01:21.735Z,2.10
2018-12-26T09:02:26.879Z,2.10
2018-12-26T09:03:31.918Z,2.10
2018-12-26T09:04:37.483Z,2.10
2018-12-26T09:05:42.827Z,2.10
2018-12-26T09:06:48.132Z,2.10
2018-12-26T09:07:53.634Z,2.10
2018-12-26T09:09:03.389Z,2.10
2018-12-26T09:10:12.044Z,2.10
2018-12-26T09:11:19.440Z,2.00
2018-12-26T09:12:27.738Z,2.10
2018-12-26T09:13:34.236Z,2.10
2018-12-26T09:14:39.487Z,2.00
2018-12-26T09:15:46.158Z,2.00
2018-12-26T09:16:51.445Z,2.00
2018-12-26T09:17:56.523Z,2.10
2018-12-26T09:19:01.539Z,2.00
2018-12-26T09:20:07.054Z,2.00
2018-12-26T09:21:12.527Z,2.10
2018-12-26T09:22:17.563Z,2.10
2018-12-26T09:23:25.733Z,2.00
2018-12-26T09:24:33.105Z,2.10
2018-12-26T09:25:40.710Z,2.10
2018-12-26T09:26:46.085Z,2.10
2018-12-26T09:27:51.514Z,2.10
2018-12-26T09:28:56.807Z,2.10
2018-12-26T09:30:03.584Z,2.20
2018-12-26T09:31:08.781Z,2.20
2018-12-26T09:32:20.427Z,2.20
2018-12-26T09:33:24.967Z,2.20
2018-12-26T09:34:34.105Z,2.20
2018-12-26T09:35:39.429Z,2.30
2018-12-26T09:36:45.703Z,2.30
2018-12-26T09:37:50.803Z,2.30
2018-12-26T09:39:05.926Z,2.40
2018-12-26T09:40:19.194Z,2.40
2018-12-26T09:41:24.594Z,2.40
2018-12-26T09:42:29.707Z,2.40
2018-12-26T09:43:35.379Z,2.40
2018-12-26T09:44:40.544Z,2.40
2018-12-26T09:45:46.160Z,2.10
2018-12-26T09:46:51.280Z,2.40
2018-12-26T09:47:56.416Z,2.40
2018-12-26T09:49:01.838Z,2.50
2018-12-26T09:50:07.222Z,2.50
2018-12-26T09:51:12.272Z,2.60
2018-12-26T09:52:21.911Z,2.50
2018-12-26T09:53:34.373Z,2.50
2018-12-26T09:54:42.615Z,2.50
2018-12-26T09:55:48.216Z,2.50
2018-12-26T09:56:54.457Z,2.60
2018-12-26T09:57:59.636Z,2.60
2018-12-26T09:59:04.651Z,2.60
2018-12-26T10:00:12.183Z,2.60
2018-12-26T10:01:45.071Z,2.60
2018-12-26T10:02:58.811Z,2.60
2018-12-26T10:04:04.210Z,2.60
2018-12-26T10:05:21.847Z,2.60
2018-12-26T10:06:39.555Z,2.60
2018-12-26T10:07:45.037Z,2.60
2018-12-26T10:08:55.357Z,2.60
2018-12-26T10:10:03.505Z,2.70
2018-12-26T10:11:10.564Z,2.70
2018-12-26T10:12:15.774Z,2.80
2018-12-26T10:13:26.874Z,2.80
2018-12-26T10:14:32.470Z,2.80
2018-12-26T10:15:43.980Z,2.80
2018-12-26T10:16:54.823Z,2.80
2018-12-26T10:18:00.003Z,2.90
2018-12-26T10:19:18.674Z,2.90
2018-12-26T10:20:28.952Z,2.90
2018-12-26T10:21:37.534Z,2.90
2018-12-26T10:22:43.620Z,3.00
2018-12-26T10:23:50.315Z,3.00
2018-12-26T10:24:55.777Z,3.10
2018-12-26T10:26:00.944Z,3.10
2018-12-26T10:27:09.147Z,3.10
2018-12-26T10:28:14.190Z,3.20
2018-12-26T10:29:20.559Z,3.20
2018-12-26T10:30:25.843Z,3.20
2018-12-26T10:31:32.149Z,3.20
2018-12-26T10:32:37.376Z,3.20
2018-12-26T10:33:42.382Z,3.20
2018-12-26T10:34:48.194Z,3.20
2018-12-26T10:35:53.307Z,3.30
2018-12-26T10:36:58.343Z,3.30
2018-12-26T10:38:03.674Z,3.40
2018-12-26T10:39:08.935Z,3.40
2018-12-26T10:40:15.603Z,3.50
2018-12-26T10:41:20.624Z,3.50
2018-12-26T10:42:25.824Z,3.50
2018-12-26T10:43:33.641Z,3.60
2018-12-26T10:44:38.768Z,3.60
2018-12-26T10:45:49.118Z,3.70
2018-12-26T10:46:54.195Z,3.70
2018-12-26T10:48:01.792Z,3.80
2018-12-26T10:49:16.246Z,3.80
2018-12-26T10:50:21.666Z,3.90
2018-12-26T10:51:26.990Z,3.90
2018-12-26T10:52:35.345Z,4.30
2018-12-26T10:53:42.851Z,4.00
2018-12-26T10:54:50.903Z,4.00
2018-12-26T10:56:01.327Z,4.10
2018-12-26T10:57:09.258Z,4.20
2018-12-26T10:58:15.862Z,4.20
2018-12-26T10:59:21.351Z,4.30
2018-12-26T11:00:26.637Z,4.40
2018-12-26T11:01:34.286Z,4.40
2018-12-26T11:02:42.360Z,4.50
2018-12-26T11:03:49.514Z,4.50
2018-12-26T11:04:58.522Z,4.60
2018-12-26T11:06:04.857Z,4.60
2018-12-26T11:07:27.531Z,4.60
2018-12-26T11:08:36.253Z,4.60
2018-12-26T11:09:47.441Z,4.70
2018-12-26T11:10:53.824Z,4.80
2018-12-26T11:11:59.410Z,4.80
2018-12-26T11:13:04.805Z,4.80
2018-12-26T11:14:21.248Z,4.80
2018-12-26T11:15:29.804Z,4.80
2018-12-26T11:16:35.178Z,4.80
2018-12-26T11:17:40.927Z,4.90
2018-12-26T11:18:46.536Z,4.80
2018-12-26T11:19:52.899Z,4.90
2018-12-26T11:21:00.620Z,5.00
2018-12-26T11:22:05.830Z,5.00
2018-12-26T11:23:11.662Z,5.00
2018-12-26T11:24:18.250Z,5.10
2018-12-26T11:25:24.443Z,5.10
2018-12-26T11:26:30.416Z,5.10
2018-12-26T11:27:35.568Z,5.10
2018-12-26T11:28:44.901Z,5.10
2018-12-26T11:29:50.243Z,5.10
2018-12-26T11:30:57.023Z,5.20
2018-12-26T11:32:02.944Z,5.20
2018-12-26T11:33:11.149Z,5.30
2018-12-26T11:34:19.883Z,5.30
2018-12-26T11:35:25.360Z,5.30
2018-12-26T11:36:33.508Z,5.30
2018-12-26T11:37:39.854Z,5.30
2018-12-26T11:38:45.813Z,5.30
2018-12-26T11:39:51.557Z,5.30
2018-12-26T11:40:56.662Z,5.30
2018-12-26T11:42:06.218Z,5.40
2018-12-26T11:43:13.975Z,5.40
2018-12-26T11:44:21.669Z,5.50
2018-12-26T11:45:30.063Z,5.50
2018-12-26T11:46:41.579Z,5.50
2018-12-26T11:47:49.948Z,5.50
2018-12-26T11:48:55.911Z,5.60
2018-12-26T11:50:02.959Z,5.60
2018-12-26T11:51:13.028Z,5.60
2018-12-26T11:52:18.368Z,5.60
2018-12-26T11:53:24.186Z,5.60
2018-12-26T11:54:29.250Z,5.50
2018-12-26T11:55:34.511Z,5.40
2018-12-26T11:56:41.153Z,5.40
2018-12-26T11:57:46.611Z,5.40
2018-12-26T11:58:54.761Z,5.40
2018-12-26T11:59:59.879Z,5.40
2018-12-26T12:01:16.270Z,5.40
2018-12-26T12:04:26.664Z,5.50
2018-12-26T12:05:33.020Z,5.60
2018-12-26T12:06:40.678Z,5.60
2018-12-26T12:07:51.221Z,5.70
2018-12-26T12:09:01.330Z,5.70
2018-12-26T12:10:08.771Z,5.60
2018-12-26T12:11:15.226Z,5.70
2018-12-26T12:12:28.106Z,5.70
2018-12-26T12:13:36.722Z,5.70
2018-12-26T12:14:49.715Z,5.70
2018-12-26T12:16:00.416Z,5.70
2018-12-26T12:17:09.198Z,5.70
2018-12-26T12:18:18.431Z,5.60
2018-12-26T12:19:27.583Z,5.70
2018-12-26T12:20:33.815Z,5.70
2018-12-26T12:21:40.117Z,5.70
2018-12-26T12:22:45.445Z,5.70
2018-12-26T12:23:50.829Z,5.70
2018-12-26T12:24:56.166Z,5.70
2018-12-26T12:26:02.292Z,5.70
2018-12-26T12:27:07.546Z,5.70
2018-12-26T12:28:13.123Z,5.70
2018-12-26T12:29:18.566Z,5.70
2018-12-26T12:30:26.671Z,5.70
2018-12-26T12:31:38.779Z,5.80
2018-12-26T12:32:47.208Z,5.80
2018-12-26T12:33:54.716Z,5.80
2018-12-26T12:35:01.740Z,5.70
2018-12-26T12:36:07.138Z,5.70
2018-12-26T12:37:20.947Z,5.70
2018-12-26T12:38:26.119Z,5.70
2018-12-26T12:39:31.443Z,5.70
2018-12-26T12:40:36.943Z,5.70
2018-12-26T12:41:42.547Z,5.70
2018-12-26T12:42:54.614Z,5.70
2018-12-26T12:44:01.133Z,5.70
2018-12-26T12:45:07.804Z,5.70
2018-12-26T12:46:16.122Z,5.70
2018-12-26T12:47:25.749Z,5.70
2018-12-26T12:48:32.271Z,5.80
2018-12-26T12:49:44.398Z,5.80
2018-12-26T12:50:52.813Z,5.90
2018-12-26T12:52:21.944Z,5.90
2018-12-26T12:53:28.214Z,5.90
2018-12-26T12:54:33.686Z,5.90
2018-12-26T12:55:42.997Z,5.90
2018-12-26T12:56:48.639Z,5.90
2018-12-26T12:57:54.357Z,5.90
2018-12-26T12:59:02.107Z,5.90
2018-12-26T13:00:10.997Z,5.90
2018-12-26T13:01:18.298Z,5.90
2018-12-26T13:02:26.150Z,5.90
2018-12-26T13:03:34.675Z,5.90
2018-12-26T13:04:40.978Z,5.90
2018-12-26T13:05:46.907Z,6.00
2018-12-26T13:06:58.588Z,6.00
2018-12-26T13:08:05.949Z,6.00
2018-12-26T13:09:14.386Z,6.00
2018-12-26T13:10:20.832Z,6.10
2018-12-26T13:11:28.081Z,6.10
2018-12-26T13:12:36.543Z,6.10
2018-12-26T13:13:45.318Z,6.10
2018-12-26T13:14:53.796Z,6.10
2018-12-26T13:16:04.976Z,6.10
2018-12-26T13:17:14.395Z,6.10
2018-12-26T13:18:28.466Z,6.10
2018-12-26T13:19:41.048Z,6.10
2018-12-26T13:20:46.249Z,6.00
2018-12-26T13:21:51.456Z,6.00
2018-12-26T13:23:00.589Z,6.00
2018-12-26T13:24:07.155Z,6.00
2018-12-26T13:25:15.055Z,6.10
2018-12-26T13:26:23.217Z,6.10
2018-12-26T13:27:31.310Z,6.10
2018-12-26T13:28:38.828Z,6.10
2018-12-26T13:29:53.597Z,6.10
2018-12-26T13:30:54.785Z,6.10
2018-12-26T13:32:00.168Z,6.10
2018-12-26T13:33:13.220Z,6.10
2018-12-26T13:34:22.827Z,6.20
2018-12-26T13:35:30.730Z,6.10
2018-12-26T13:36:36.002Z,6.10
2018-12-26T13:37:58.615Z,6.10
2018-12-26T13:39:08.868Z,6.00
2018-12-26T13:40:28.303Z,6.00
2018-12-26T13:41:35.509Z,6.00
2018-12-26T13:42:46.498Z,6.00
2018-12-26T13:43:58.871Z,6.00
2018-12-26T13:45:06.996Z,6.10
2018-12-26T13:46:16.200Z,6.10
2018-12-26T13:47:26.522Z,6.00
2018-12-26T13:48:37.687Z,6.10
2018-12-26T13:49:44.341Z,6.10
2018-12-26T13:50:50.449Z,6.10
2018-12-26T13:51:59.188Z,6.00
2018-12-26T13:53:08.195Z,6.10
2018-12-26T13:54:15.085Z,6.00
2018-12-26T13:55:22.956Z,6.00
2018-12-26T13:56:31.540Z,6.00
2018-12-26T13:57:40.743Z,6.00
2018-12-26T13:58:50.218Z,5.90
2018-12-26T14:00:22.311Z,5.90
2018-12-26T14:01:18.885Z,5.90
2018-12-26T14:02:26.921Z,5.90
2018-12-26T14:03:34.828Z,5.90
2018-12-26T14:04:43.187Z,5.90
2018-12-26T14:05:56.344Z,5.90
2018-12-26T14:07:02.222Z,5.80
2018-12-26T14:08:19.470Z,5.90
2018-12-26T14:09:33.741Z,5.80
2018-12-26T14:10:39.278Z,5.80
2018-12-26T14:11:47.719Z,5.90
2018-12-26T14:13:03.437Z,5.90
2018-12-26T14:14:08.596Z,5.90
2018-12-26T14:15:14.861Z,5.90
2018-12-26T14:16:23.059Z,5.90
2018-12-26T14:17:32.556Z,5.90
2018-12-26T14:18:39.587Z,5.90
2018-12-26T14:19:44.619Z,5.90
2018-12-26T14:20:56.763Z,5.90
2018-12-26T14:22:04.822Z,5.90
2018-12-26T14:23:13.487Z,5.90
2018-12-26T14:24:20.781Z,5.80
2018-12-26T14:25:25.971Z,5.90
2018-12-26T14:26:31.325Z,5.80
2018-12-26T14:27:36.803Z,5.90
2018-12-26T14:28:54.777Z,5.90
2018-12-26T14:30:11.169Z,5.80
2018-12-26T14:31:19.574Z,5.80
2018-12-26T14:32:39.843Z,5.80
2018-12-26T14:33:52.460Z,5.80
2018-12-26T14:35:00.168Z,5.80
2018-12-26T14:36:16.794Z,5.80
2018-12-26T14:37:27.755Z,5.80
2018-12-26T14:38:39.209Z,5.80
2018-12-26T14:39:46.020Z,5.80
2018-12-26T14:40:55.523Z,5.80
2018-12-26T14:42:07.063Z,5.80
2018-12-26T14:43:13.204Z,5.80
2018-12-26T14:44:18.455Z,5.70
2018-12-26T14:45:26.715Z,5.70
2018-12-26T14:46:31.943Z,5.70
2018-12-26T14:47:37.395Z,5.70
2018-12-26T14:48:47.626Z,5.70
2018-12-26T14:49:53.274Z,5.70
2018-12-26T14:51:07.191Z,5.70
2018-12-26T14:52:12.487Z,5.70
2018-12-26T14:53:17.857Z,5.70
2018-12-26T14:54:25.656Z,5.70
2018-12-26T14:55:34.252Z,5.70
2018-12-26T14:56:43.791Z,5.70
2018-12-26T14:57:49.866Z,5.70
2018-12-26T14:58:57.032Z,5.70
2018-12-26T15:00:02.423Z,5.70
2018-12-26T15:01:07.798Z,5.70
2018-12-26T15:02:19.288Z,5.70
2018-12-26T15:03:32.387Z,5.70
2018-12-26T15:04:38.355Z,5.70
2018-12-26T15:05:45.770Z,5.70
2018-12-26T15:06:56.353Z,5.70
2018-12-26T15:08:03.747Z,5.70
2018-12-26T15:09:09.896Z,5.70
2018-12-26T15:10:15.294Z,5.70
2018-12-26T15:11:20.787Z,5.70
2018-12-26T15:12:26.276Z,5.70
2018-12-26T15:13:31.578Z,5.70
2018-12-26T15:14:45.382Z,5.70
2018-12-26T15:15:52.625Z,5.70
2018-12-26T15:17:02.836Z,5.70
2018-12-26T15:18:08.811Z,5.70
2018-12-26T15:19:22.795Z,5.70
2018-12-26T15:20:28.379Z,5.70
2018-12-26T15:21:35.364Z,5.70
2018-12-26T15:22:44.079Z,5.70
2018-12-26T15:23:49.331Z,5.70
2018-12-26T15:25:01.657Z,5.60
2018-12-26T15:26:08.935Z,5.60
2018-12-26T15:27:14.936Z,5.60
2018-12-26T15:28:26.430Z,5.50
2018-12-26T15:29:35.344Z,5.50
2018-12-26T15:30:40.615Z,5.50
2018-12-26T15:31:46.417Z,5.50
2018-12-26T15:32:51.804Z,5.50
2018-12-26T15:34:00.215Z,5.50
2018-12-26T15:35:10.436Z,5.50
2018-12-26T15:36:21.943Z,5.50
2018-12-26T15:37:33.657Z,5.50
2018-12-26T15:38:38.973Z,5.50
2018-12-26T15:39:45.631Z,5.50
2018-12-26T15:40:54.696Z,5.50
2018-12-26T15:42:00.184Z,5.50
2018-12-26T15:43:09.031Z,5.50
2018-12-26T15:44:17.284Z,5.50
2018-12-26T15:45:28.875Z,5.50
2018-12-26T15:46:36.655Z,5.50
2018-12-26T15:47:46.622Z,5.50
2018-12-26T15:48:59.812Z,5.50
2018-12-26T15:50:11.337Z,5.50
2018-12-26T15:51:19.242Z,5.50
2018-12-26T15:52:24.893Z,5.40
2018-12-26T15:53:31.357Z,5.40
2018-12-26T15:54:41.276Z,5.40
2018-12-26T15:55:47.323Z,5.40
2018-12-26T15:56:52.856Z,5.40
2018-12-26T15:57:58.169Z,5.40
2018-12-26T15:59:03.429Z,5.40
2018-12-26T16:00:10.531Z,5.40
2018-12-26T16:01:15.607Z,5.40
2018-12-26T16:02:20.858Z,5.40
2018-12-26T16:03:27.739Z,5.30
2018-12-26T16:04:38.286Z,5.30
2018-12-26T16:05:52.201Z,5.30
2018-12-26T16:07:11.009Z,5.30
2018-12-26T16:08:18.638Z,5.20
2018-12-26T16:09:24.882Z,5.30
2018-12-26T16:10:31.814Z,5.30
2018-12-26T16:11:37.676Z,5.30
2018-12-26T16:12:46.792Z,5.20
2018-12-26T16:13:52.014Z,5.20
2018-12-26T16:14:57.190Z,5.20
2018-12-26T16:16:05.960Z,5.20
2018-12-26T16:17:12.748Z,5.20
2018-12-26T16:18:18.347Z,5.20
2018-12-26T16:19:29.360Z,5.20
2018-12-26T16:20:34.879Z,5.20
2018-12-26T16:21:42.089Z,5.20
2018-12-26T16:22:50.223Z,5.30
2018-12-26T16:23:55.376Z,5.30
2018-12-26T16:25:06.556Z,5.30
2018-12-26T16:26:11.710Z,5.20
2018-12-26T16:27:27.012Z,5.20
2018-12-26T16:28:37.129Z,5.20
2018-12-26T16:29:44.707Z,5.20
2018-12-26T16:30:49.851Z,5.20
2018-12-26T16:32:02.215Z,5.20
2018-12-26T16:33:09.242Z,5.20
2018-12-26T16:34:17.819Z,5.10
2018-12-26T16:35:29.397Z,5.10
2018-12-26T16:36:34.714Z,5.10
2018-12-26T16:37:43.234Z,5.20
2018-12-26T16:39:01.596Z,5.20
2018-12-26T16:40:08.335Z,5.20
2018-12-26T16:41:13.578Z,5.10
2018-12-26T16:42:24.711Z,5.10
2018-12-26T16:43:30.743Z,5.10
2018-12-26T16:44:36.234Z,5.10
2018-12-26T16:45:44.312Z,5.20
2018-12-26T16:46:53.855Z,5.10
2018-12-26T16:47:59.384Z,5.10
2018-12-26T16:49:07.304Z,5.10
2018-12-26T16:50:12.943Z,5.10
2018-12-26T16:51:21.045Z,5.10
2018-12-26T16:52:29.520Z,5.10
2018-12-26T16:53:41.078Z,5.00
2018-12-26T16:54:46.312Z,5.00
2018-12-26T16:55:52.376Z,5.00
2018-12-26T16:57:03.723Z,5.00
2018-12-26T16:58:09.461Z,5.00
2018-12-26T16:59:25.262Z,5.00
2018-12-26T17:00:31.479Z,4.90
2018-12-26T17:01:37.585Z,5.00
2018-12-26T17:02:43.831Z,5.00
2018-12-26T17:03:49.288Z,4.90
2018-12-26T17:04:57.143Z,5.00
2018-12-26T17:06:02.593Z,5.00
2018-12-26T17:07:07.785Z,5.00
2018-12-26T17:08:14.385Z,5.00
2018-12-26T17:09:20.615Z,5.00
2018-12-26T17:10:27.679Z,5.00
2018-12-26T17:11:37.157Z,4.90
2018-12-26T17:12:45.580Z,5.00
2018-12-26T17:13:56.124Z,4.90
2018-12-26T17:15:04.840Z,4.90
2018-12-26T17:16:23.007Z,4.90
2018-12-26T17:17:31.846Z,4.90
2018-12-26T17:18:41.927Z,4.80
2018-12-26T17:20:02.351Z,4.80
2018-12-26T17:21:10.891Z,4.80
2018-12-26T17:22:18.855Z,4.80
2018-12-26T17:23:25.642Z,4.80
2018-12-26T17:24:31.513Z,4.70
2018-12-26T17:25:40.673Z,4.70
2018-12-26T17:26:46.332Z,4.70
2018-12-26T17:27:56.071Z,4.70
2018-12-26T17:29:01.420Z,4.70
2018-12-26T17:30:11.051Z,4.70
2018-12-26T17:31:16.780Z,4.70
2018-12-26T17:32:23.950Z,4.70
2018-12-26T17:33:29.844Z,4.70
2018-12-26T17:34:38.532Z,4.70
2018-12-26T17:35:43.593Z,4.70
2018-12-26T17:36:50.369Z,4.70
2018-12-26T17:37:57.383Z,4.70
2018-12-26T17:39:02.819Z,4.70
2018-12-26T17:40:08.702Z,4.70
2018-12-26T17:41:15.331Z,4.60
2018-12-26T17:42:20.586Z,4.60
2018-12-26T17:43:29.129Z,4.70
2018-12-26T17:44:35.269Z,4.60
2018-12-26T17:45:40.732Z,4.60
2018-12-26T17:46:49.616Z,4.60
2018-12-26T17:47:57.139Z,4.70
2018-12-26T17:49:08.807Z,4.60
2018-12-26T17:50:46.695Z,4.60
2018-12-26T17:51:54.879Z,4.70
2018-12-26T17:53:00.200Z,4.60
2018-12-26T17:54:39.446Z,4.60
2018-12-26T17:56:13.141Z,4.60
2018-12-26T17:57:28.669Z,4.60
2018-12-26T17:58:40.723Z,4.50
2018-12-26T18:00:12.765Z,4.60
2018-12-26T18:01:34.204Z,4.60
2018-12-26T18:02:50.644Z,4.60
2018-12-26T18:04:01.137Z,4.60
2018-12-26T18:05:09.817Z,4.50
2018-12-26T18:06:19.169Z,4.50
2018-12-26T18:07:26.913Z,4.50
2018-12-26T18:08:35.666Z,4.50
2018-12-26T18:09:47.448Z,4.60
2018-12-26T18:10:57.416Z,4.50
2018-12-26T18:12:12.117Z,4.50
2018-12-26T18:13:18.134Z,4.50
2018-12-26T18:14:28.678Z,4.50
2018-12-26T18:15:33.699Z,4.50
2018-12-26T18:16:43.524Z,4.50
2018-12-26T18:17:51.412Z,4.50
2018-12-26T18:18:59.592Z,4.50
2018-12-26T18:20:05.589Z,4.50
2018-12-26T18:21:12.278Z,4.50
2018-12-26T18:22:27.580Z,4.50
2018-12-26T18:23:33.019Z,4.50
2018-12-26T18:24:38.618Z,4.50
2018-12-26T18:25:47.372Z,4.60
2018-12-26T18:26:57.482Z,4.50
2018-12-26T18:28:09.695Z,4.50
2018-12-26T18:29:21.888Z,4.70
2018-12-26T18:30:30.014Z,4.50
2018-12-26T18:31:38.063Z,4.50
2018-12-26T18:32:43.834Z,4.50
2018-12-26T18:33:50.748Z,4.50
2018-12-26T18:34:56.508Z,4.40
2018-12-26T18:36:04.534Z,4.50
2018-12-26T18:37:09.763Z,4.50
2018-12-26T18:38:15.207Z,4.50
2018-12-26T18:39:20.441Z,4.50
2018-12-26T18:40:29.071Z,4.40
2018-12-26T18:41:34.635Z,4.40
2018-12-26T18:42:39.690Z,4.40
2018-12-26T18:43:44.819Z,4.40
2018-12-26T18:44:50.075Z,4.40
2018-12-26T18:46:14.437Z,4.40
2018-12-26T18:47:20.424Z,4.40
2018-12-26T18:48:27.906Z,4.40
2018-12-26T18:49:33.825Z,4.40
2018-12-26T18:50:39.423Z,4.40
2018-12-26T18:51:46.763Z,4.40
2018-12-26T18:52:53.869Z,4.40
2018-12-26T18:54:04.385Z,4.40
2018-12-26T18:55:13.131Z,4.40
2018-12-26T18:56:18.576Z,4.40
2018-12-26T18:57:24.499Z,4.40
2018-12-26T18:58:29.572Z,4.40
2018-12-26T18:59:36.772Z,4.40
2018-12-26T19:00:43.265Z,4.40
2018-12-26T19:01:53.233Z,4.40
2018-12-26T19:03:03.713Z,4.40
2018-12-26T19:04:09.157Z,4.50
2018-12-26T19:05:18.874Z,4.40
2018-12-26T19:06:26.649Z,4.50
2018-12-26T19:07:35.804Z,4.50
2018-12-26T19:08:47.471Z,4.40
2018-12-26T19:09:53.443Z,4.40
2018-12-26T19:11:03.182Z,4.40
2018-12-26T19:12:08.560Z,4.50
2018-12-26T19:13:13.906Z,4.50
2018-12-26T19:14:20.086Z,4.50
2018-12-26T19:15:28.450Z,4.40
2018-12-26T19:16:36.069Z,4.50
2018-12-26T19:17:41.275Z,4.60
2018-12-26T19:18:52.724Z,4.40
2018-12-26T19:19:58.103Z,4.60
2018-12-26T19:21:04.015Z,4.40
2018-12-26T19:22:11.952Z,4.50
2018-12-26T19:23:17.772Z,4.50
2018-12-26T19:24:26.329Z,4.50
2018-12-26T19:25:32.619Z,4.50
2018-12-26T19:26:43.770Z,4.50
2018-12-26T19:27:55.339Z,4.50
2018-12-26T19:29:00.797Z,4.50
2018-12-26T19:30:08.381Z,4.40
2018-12-26T19:31:14.011Z,4.40
2018-12-26T19:32:21.285Z,4.40
2018-12-26T19:33:29.881Z,4.40
2018-12-26T19:34:38.142Z,4.50
2018-12-26T19:35:44.788Z,4.40
2018-12-26T19:36:56.284Z,4.40
2018-12-26T19:38:02.259Z,4.40
2018-12-26T19:39:09.619Z,4.30
2018-12-26T19:40:16.038Z,4.50
2018-12-26T19:41:23.906Z,4.30
2018-12-26T19:42:37.337Z,4.30
2018-12-26T19:43:41.124Z,4.30
2018-12-26T19:44:52.506Z,4.30
2018-12-26T19:45:58.703Z,4.20
2018-12-26T19:47:09.273Z,4.30
2018-12-26T19:48:22.839Z,4.30
2018-12-26T19:49:32.091Z,4.20
2018-12-26T19:50:37.636Z,4.30
2018-12-26T19:51:55.506Z,4.20
2018-12-26T19:53:04.820Z,4.30
2018-12-26T19:54:13.872Z,4.20
2018-12-26T19:55:29.676Z,4.20
2018-12-26T19:56:36.281Z,4.20
2018-12-26T19:57:45.892Z,4.20
2018-12-26T19:58:53.631Z,4.20
2018-12-26T20:00:02.427Z,4.20
2018-12-26T20:01:15.409Z,4.20
2018-12-26T20:02:24.413Z,4.20
2018-12-26T20:03:29.810Z,4.20
2018-12-26T20:04:38.292Z,4.20
2018-12-26T20:05:54.481Z,4.20
2018-12-26T20:07:01.909Z,4.20
2018-12-26T20:08:30.953Z,4.20
2018-12-26T20:09:38.830Z,4.20
2018-12-26T20:10:45.949Z,4.20
2018-12-26T20:11:56.408Z,4.10
2018-12-26T20:13:02.713Z,4.20
2018-12-26T20:14:13.049Z,4.20
2018-12-26T20:15:27.261Z,4.20
2018-12-26T20:16:34.747Z,4.10
2018-12-26T20:17:41.307Z,4.10
2018-12-26T20:18:48.744Z,4.20
2018-12-26T20:19:55.026Z,4.10
2018-12-26T20:21:08.414Z,4.20
2018-12-26T20:22:15.749Z,4.10
2018-12-26T20:23:22.515Z,4.10
2018-12-26T20:24:29.008Z,4.10
2018-12-26T20:25:34.460Z,4.10
2018-12-26T20:26:41.927Z,4.10
2018-12-26T20:27:50.645Z,4.10
2018-12-26T20:28:56.596Z,4.10
2018-12-26T20:30:13.113Z,4.10
2018-12-26T20:31:22.806Z,4.10
2018-12-26T20:32:38.742Z,4.10
2018-12-26T20:33:45.703Z,4.10
2018-12-26T20:34:57.139Z,4.10
2018-12-26T20:36:04.278Z,4.10
2018-12-26T20:37:10.309Z,4.10
2018-12-26T20:38:23.005Z,4.10
2018-12-26T20:39:31.935Z,4.10
2018-12-26T20:40:48.305Z,4.10
2018-12-26T20:42:00.890Z,4.10
2018-12-26T20:43:12.246Z,4.10
2018-12-26T20:44:20.168Z,4.10
2018-12-26T20:45:43.104Z,4.10
2018-12-26T20:46:58.415Z,4.20
2018-12-26T20:48:12.085Z,4.20
2018-12-26T20:49:29.451Z,4.20
2018-12-26T20:51:09.816Z,4.20
2018-12-26T20:52:23.758Z,4.20
2018-12-26T20:53:30.272Z,4.30
2018-12-26T20:54:48.397Z,4.20
2018-12-26T20:56:00.839Z,4.20
2018-12-26T20:57:21.269Z,4.20
2018-12-26T20:58:27.689Z,4.30
2018-12-26T20:59:35.870Z,4.30
2018-12-26T21:00:45.238Z,4.20
2018-12-26T21:01:56.389Z,4.30
2018-12-26T21:03:01.644Z,4.30
2018-12-26T21:04:09.817Z,4.30
2018-12-26T21:05:18.670Z,4.40
2018-12-26T21:06:26.027Z,4.30
2018-12-26T21:07:34.189Z,4.30
2018-12-26T21:08:40.247Z,4.30
2018-12-26T21:09:45.655Z,4.30
2018-12-26T21:10:52.882Z,4.40
2018-12-26T21:11:59.347Z,4.20
2018-12-26T21:13:05.587Z,4.20
2018-12-26T21:14:11.157Z,4.30
2018-12-26T21:15:17.947Z,4.20
2018-12-26T21:16:25.975Z,4.20
2018-12-26T21:17:31.327Z,4.20
2018-12-26T21:18:37.736Z,4.20
2018-12-26T21:19:43.497Z,4.20
2018-12-26T21:20:53.287Z,4.30
2018-12-26T21:22:00.618Z,4.20
2018-12-26T21:23:13.604Z,4.20
2018-12-26T21:24:27.282Z,4.20
2018-12-26T21:25:33.070Z,4.20
2018-12-26T21:26:50.377Z,4.20
2018-12-26T21:28:00.819Z,4.20
2018-12-26T21:29:06.371Z,4.20
2018-12-26T21:30:17.515Z,4.20
2018-12-26T21:31:27.205Z,4.20
2018-12-26T21:32:36.045Z,4.20
2018-12-26T21:33:41.709Z,4.30
2018-12-26T21:34:49.062Z,4.20
2018-12-26T21:35:56.156Z,4.30
2018-12-26T21:37:11.306Z,4.20
2018-12-26T21:38:21.917Z,4.20
2018-12-26T21:39:29.151Z,4.20
2018-12-26T21:40:40.224Z,4.20
2018-12-26T21:42:03.303Z,4.20
2018-12-26T21:43:17.323Z,4.30
2018-12-26T21:44:34.817Z,4.30
2018-12-26T21:45:50.391Z,4.30
2018-12-26T21:46:58.425Z,4.30
2018-12-26T21:48:09.720Z,4.30
2018-12-26T21:49:17.206Z,4.20
2018-12-26T21:50:30.794Z,4.20
2018-12-26T21:51:47.853Z,4.20
2018-12-26T21:53:03.759Z,4.30
2018-12-26T21:54:15.426Z,4.40
2018-12-26T21:55:21.992Z,4.40
2018-12-26T21:56:32.506Z,4.40
2018-12-26T21:57:40.387Z,4.40
2018-12-26T21:58:53.863Z,4.30
2018-12-26T22:00:01.837Z,4.30
2018-12-26T22:01:10.700Z,4.40
2018-12-26T22:02:22.450Z,4.30
2018-12-26T22:03:23.335Z,4.30
2018-12-26T22:04:31.903Z,4.30
2018-12-26T22:05:42.349Z,4.30